Dallas, Texas
Traffic Map
Current Weather Conditions
Dallas, Texas
Broken Clouds
Broken Clouds
90°
Feels Like: 91°
Wind Chill: 90° Ceiling: 21000
Heat Index: 91° Visibility: 10mi
Dew Point: 63° Wind: 6mph
Humidity: 40% Direction: 60° (ENE)
Pressure: 29.82in Gusts: 0mph
Raw Report DataKDAL 230953Z 06005KT 10SM SCT170 BKN210 BKN300 32/17 A2982 RMK AO2 SLP088 T03220172
Traffic Incident Summary
Active as of:
Severity:
Category:
InformationThere was an issue retrieving the traffic information for this location. Please try a different location or try again shortly.
Advertisements